createdAt,value
2022-12-24T00:00:11.557Z,11.10
2022-12-24T00:01:11.502Z,7.50
2022-12-24T00:02:11.568Z,10.90
2022-12-24T00:03:11.603Z,9.70
2022-12-24T00:04:11.486Z,9.20
2022-12-24T00:05:11.455Z,8.50
2022-12-24T00:06:11.437Z,10.10
2022-12-24T00:07:11.439Z,7.80
2022-12-24T00:08:11.416Z,12.00
2022-12-24T00:09:11.397Z,7.80
2022-12-24T00:10:11.383Z,10.80
2022-12-24T00:11:11.386Z,8.70
2022-12-24T00:12:11.375Z,9.60
2022-12-24T00:13:11.357Z,10.30
2022-12-24T00:14:11.336Z,8.90
2022-12-24T00:15:11.318Z,11.30
2022-12-24T00:16:11.314Z,8.50
2022-12-24T00:17:11.417Z,9.40
2022-12-24T00:18:11.279Z,12.30
2022-12-24T00:19:11.272Z,9.40
2022-12-24T00:20:11.298Z,10.70
2022-12-24T00:21:11.241Z,7.80
2022-12-24T00:22:11.256Z,9.40
2022-12-24T00:23:11.223Z,10.10
2022-12-24T00:24:11.215Z,12.20
2022-12-24T00:25:11.188Z,11.70
2022-12-24T00:26:11.189Z,9.50
2022-12-24T00:27:11.202Z,12.80
2022-12-24T00:28:11.167Z,9.80
2022-12-24T00:29:11.141Z,12.80
2022-12-24T00:30:11.128Z,9.80
2022-12-24T00:31:11.247Z,8.80
2022-12-24T00:32:11.129Z,9.60
2022-12-24T00:33:11.092Z,8.80
2022-12-24T00:34:11.080Z,10.10
2022-12-24T00:35:11.056Z,7.80
2022-12-24T00:36:11.074Z,8.40
2022-12-24T00:37:11.036Z,11.30
2022-12-24T00:38:11.032Z,7.70
2022-12-24T00:39:11.006Z,8.50
2022-12-24T00:40:10.991Z,10.20
2022-12-24T00:41:10.975Z,11.30
2022-12-24T00:42:10.985Z,8.40
2022-12-24T00:43:10.965Z,9.60
2022-12-24T00:44:10.945Z,10.50
2022-12-24T00:45:10.932Z,9.90
2022-12-24T00:46:10.976Z,9.20
2022-12-24T00:47:12.263Z,11.00
2022-12-24T00:48:10.907Z,8.60
2022-12-24T00:49:10.893Z,10.00
2022-12-24T00:50:10.877Z,11.70
2022-12-24T00:51:10.872Z,9.80
2022-12-24T00:52:10.850Z,9.30
2022-12-24T00:53:10.841Z,9.70
2022-12-24T00:54:10.807Z,12.10
2022-12-24T00:55:10.795Z,7.90
2022-12-24T00:56:10.781Z,9.00
2022-12-24T00:57:10.769Z,8.80
2022-12-24T00:58:10.775Z,11.30
2022-12-24T00:59:10.736Z,8.80
2022-12-24T01:00:10.825Z,11.30
2022-12-24T01:01:10.847Z,9.80
2022-12-24T01:02:10.939Z,9.80
2022-12-24T01:03:10.831Z,10.40
2022-12-24T01:04:10.677Z,8.50
2022-12-24T01:05:10.662Z,11.10
2022-12-24T01:06:10.651Z,9.00
2022-12-24T01:07:10.641Z,11.40
2022-12-24T01:08:10.656Z,8.10
2022-12-24T01:09:10.614Z,10.00
2022-12-24T01:10:10.602Z,9.80
2022-12-24T01:11:10.587Z,7.60
2022-12-24T01:12:10.568Z,10.30
2022-12-24T01:13:10.585Z,9.60
2022-12-24T01:14:10.567Z,9.70
2022-12-24T01:15:10.533Z,7.40
2022-12-24T01:16:10.554Z,11.60
2022-12-24T01:17:10.503Z,12.10
2022-12-24T01:18:10.508Z,9.70
2022-12-24T01:19:10.478Z,9.60
2022-12-24T01:20:10.467Z,8.40
2022-12-24T01:21:10.474Z,11.10
2022-12-24T01:22:10.448Z,10.50
2022-12-24T01:23:10.444Z,11.60
2022-12-24T01:24:10.437Z,12.20
2022-12-24T01:25:10.403Z,10.40
2022-12-24T01:26:10.390Z,11.10
2022-12-24T01:27:10.378Z,9.70
2022-12-24T01:28:10.377Z,11.90
2022-12-24T01:29:10.345Z,8.90
2022-12-24T01:30:10.337Z,6.70
2022-12-24T01:31:10.407Z,9.60
2022-12-24T01:32:10.312Z,11.40
2022-12-24T01:33:10.311Z,12.10
2022-12-24T01:34:10.283Z,9.80
2022-12-24T01:35:10.271Z,9.90
2022-12-24T01:36:10.275Z,9.60
2022-12-24T01:37:10.240Z,10.20
2022-12-24T01:38:10.252Z,10.50
2022-12-24T01:39:10.232Z,10.60
2022-12-24T01:40:10.234Z,10.30
2022-12-24T01:41:10.195Z,11.50
2022-12-24T01:42:10.183Z,10.20
2022-12-24T01:43:10.186Z,12.60
2022-12-24T01:44:10.153Z,8.50
2022-12-24T01:45:10.162Z,10.10
2022-12-24T01:46:10.168Z,8.60
2022-12-24T01:47:10.117Z,10.20
2022-12-24T01:48:10.094Z,8.10
2022-12-24T01:49:10.104Z,9.40
2022-12-24T01:50:10.067Z,9.20
2022-12-24T01:51:10.062Z,10.50
2022-12-24T01:52:10.045Z,7.10
2022-12-24T01:53:10.039Z,8.70
2022-12-24T01:54:10.032Z,10.30
2022-12-24T01:55:10.025Z,9.50
2022-12-24T01:56:10.019Z,10.40
2022-12-24T01:57:09.987Z,10.00
2022-12-24T01:58:09.990Z,9.90
2022-12-24T01:59:09.972Z,9.90
2022-12-24T02:00:09.935Z,9.90
2022-12-24T02:01:10.018Z,13.40
2022-12-24T02:02:10.005Z,8.90
2022-12-24T02:03:09.941Z,10.30
2022-12-24T02:04:09.910Z,9.10
2022-12-24T02:05:09.872Z,9.90
2022-12-24T02:06:09.863Z,9.40
2022-12-24T02:07:09.874Z,11.40
2022-12-24T02:08:09.845Z,9.50
2022-12-24T02:09:09.837Z,9.10
2022-12-24T02:10:09.815Z,11.10
2022-12-24T02:11:09.796Z,12.30
2022-12-24T02:12:09.797Z,11.40
2022-12-24T02:13:09.770Z,9.30
2022-12-24T02:14:09.772Z,9.60
2022-12-24T02:15:09.753Z,10.20
2022-12-24T02:16:09.862Z,8.20
2022-12-24T02:17:09.716Z,8.10
2022-12-24T02:18:09.709Z,11.80
2022-12-24T02:19:09.707Z,9.70
2022-12-24T02:20:09.679Z,11.60
2022-12-24T02:21:09.666Z,11.80
2022-12-24T02:22:09.651Z,9.80
2022-12-24T02:23:09.654Z,10.80
2022-12-24T02:24:09.660Z,8.20
2022-12-24T02:25:09.610Z,7.50
2022-12-24T02:26:09.601Z,12.10
2022-12-24T02:27:09.587Z,11.30
2022-12-24T02:28:09.598Z,12.60
2022-12-24T02:29:09.590Z,9.10
2022-12-24T02:30:09.542Z,11.90
2022-12-24T02:31:09.582Z,8.40
2022-12-24T02:32:09.523Z,10.00
2022-12-24T02:33:09.509Z,11.40
2022-12-24T02:34:09.536Z,11.00
2022-12-24T02:35:09.487Z,10.10
2022-12-24T02:36:09.466Z,11.10
2022-12-24T02:37:09.462Z,13.10
2022-12-24T02:38:09.450Z,11.90
2022-12-24T02:39:09.454Z,10.50
2022-12-24T02:40:16.025Z,9.80
2022-12-24T02:41:09.403Z,10.10
2022-12-24T02:42:09.395Z,12.10
2022-12-24T02:43:09.381Z,9.80
2022-12-24T02:44:09.395Z,12.20
2022-12-24T02:45:09.361Z,10.60
2022-12-24T02:46:09.400Z,11.50
2022-12-24T02:47:09.413Z,10.70
2022-12-24T02:48:09.326Z,8.90
2022-12-24T02:49:09.321Z,11.40
2022-12-24T02:50:09.292Z,9.70
2022-12-24T02:51:09.272Z,12.70
2022-12-24T02:52:09.259Z,10.30
2022-12-24T02:53:09.254Z,9.80
2022-12-24T02:54:09.233Z,10.40
2022-12-24T02:55:09.239Z,9.70
2022-12-24T02:56:09.211Z,11.40
2022-12-24T02:57:09.193Z,9.80
2022-12-24T02:58:09.183Z,10.80
2022-12-24T02:59:09.174Z,13.10
2022-12-24T03:00:09.187Z,11.10
2022-12-24T03:01:09.349Z,8.10
2022-12-24T03:02:09.276Z,8.30
2022-12-24T03:03:09.216Z,9.50
2022-12-24T03:04:09.113Z,10.10
2022-12-24T03:05:09.108Z,8.30
2022-12-24T03:06:09.073Z,10.90
2022-12-24T03:07:09.080Z,8.70
2022-12-24T03:08:09.053Z,8.70
2022-12-24T03:09:09.039Z,10.20
2022-12-24T03:10:09.043Z,9.60
2022-12-24T03:11:09.010Z,9.80
2022-12-24T03:12:08.995Z,9.90
2022-12-24T03:13:08.983Z,10.70
2022-12-24T03:14:08.973Z,11.70
2022-12-24T03:15:08.975Z,13.30
2022-12-24T03:16:09.110Z,10.50
2022-12-24T03:17:08.939Z,6.80
2022-12-24T03:18:08.919Z,11.00
2022-12-24T03:19:09.178Z,12.30
2022-12-24T03:20:08.936Z,10.00
2022-12-24T03:21:08.883Z,6.70
2022-12-24T03:22:08.865Z,9.50
2022-12-24T03:23:08.853Z,8.70
2022-12-24T03:24:08.840Z,10.40
2022-12-24T03:25:08.846Z,9.30
2022-12-24T03:26:08.815Z,10.60
2022-12-24T03:27:08.814Z,11.80
2022-12-24T03:28:08.789Z,12.70
2022-12-24T03:29:08.786Z,8.50
2022-12-24T03:30:08.779Z,7.20
2022-12-24T03:31:08.828Z,12.30
2022-12-24T03:32:08.871Z,10.30
2022-12-24T03:33:08.726Z,7.30
2022-12-24T03:34:08.704Z,8.40
2022-12-24T03:35:08.718Z,11.10
2022-12-24T03:36:08.680Z,10.50
2022-12-24T03:37:08.666Z,11.50
2022-12-24T03:38:08.652Z,9.60
2022-12-24T03:39:08.641Z,10.60
2022-12-24T03:40:08.650Z,11.00
2022-12-24T03:41:08.621Z,9.00
2022-12-24T03:42:08.606Z,9.20
2022-12-24T03:43:08.593Z,8.80
2022-12-24T03:44:08.579Z,10.80
2022-12-24T03:45:08.588Z,9.10
2022-12-24T03:46:08.673Z,10.30
2022-12-24T03:47:08.535Z,9.30
2022-12-24T03:48:08.547Z,6.10
2022-12-24T03:49:08.515Z,12.30
2022-12-24T03:50:08.526Z,7.60
2022-12-24T03:51:08.483Z,9.20
2022-12-24T03:52:08.467Z,11.20
2022-12-24T03:53:08.459Z,10.70
2022-12-24T03:54:08.462Z,7.90
2022-12-24T03:55:08.447Z,8.60
2022-12-24T03:56:08.413Z,8.60
2022-12-24T03:57:08.414Z,11.80
2022-12-24T03:58:08.393Z,9.40
2022-12-24T03:59:08.378Z,11.90
2022-12-24T04:00:08.391Z,12.60
2022-12-24T04:01:08.462Z,10.50
2022-12-24T04:02:08.617Z,7.00
2022-12-24T04:03:08.424Z,10.10
2022-12-24T04:04:08.363Z,12.40
2022-12-24T04:05:08.313Z,9.90
2022-12-24T04:06:08.310Z,10.20
2022-12-24T04:07:08.302Z,11.20
2022-12-24T04:08:08.256Z,11.60
2022-12-24T04:09:08.269Z,8.30
2022-12-24T04:10:08.234Z,10.30
2022-12-24T04:11:10.103Z,10.50
2022-12-24T04:12:08.217Z,7.90
2022-12-24T04:13:08.204Z,10.70
2022-12-24T04:14:08.182Z,12.80
2022-12-24T04:15:08.170Z,8.90
2022-12-24T04:16:08.212Z,11.60
2022-12-24T04:17:08.137Z,7.80
2022-12-24T04:18:08.128Z,8.60
2022-12-24T04:19:08.116Z,8.40
2022-12-24T04:20:08.147Z,10.00
2022-12-24T04:21:08.108Z,9.20
2022-12-24T04:22:08.087Z,9.60
2022-12-24T04:23:08.073Z,12.60
2022-12-24T04:24:08.047Z,9.20
2022-12-24T04:25:08.038Z,10.00
2022-12-24T04:26:08.034Z,9.80
2022-12-24T04:27:08.024Z,9.80
2022-12-24T04:28:07.988Z,9.50
2022-12-24T04:29:07.983Z,11.70
2022-12-24T04:30:07.985Z,11.20
2022-12-24T04:31:07.969Z,11.50
2022-12-24T04:32:07.983Z,8.60
2022-12-24T04:33:07.934Z,12.10
2022-12-24T04:34:07.915Z,11.40
2022-12-24T04:35:07.902Z,9.90
2022-12-24T04:36:07.946Z,8.50
2022-12-24T04:37:07.889Z,11.20
2022-12-24T04:38:07.863Z,9.90
2022-12-24T04:39:07.855Z,8.20
2022-12-24T04:40:07.833Z,14.60
2022-12-24T04:41:07.846Z,10.70
2022-12-24T04:42:07.812Z,13.20
2022-12-24T04:43:07.798Z,9.40
2022-12-24T04:44:07.780Z,8.80
2022-12-24T04:45:07.766Z,11.20
2022-12-24T04:46:07.895Z,10.90
2022-12-24T04:47:07.752Z,10.80
2022-12-24T04:48:07.729Z,13.10
2022-12-24T04:49:07.714Z,10.20
2022-12-24T04:50:07.707Z,12.90
2022-12-24T04:51:07.705Z,11.20
2022-12-24T04:52:07.695Z,11.30
2022-12-24T04:53:07.673Z,10.40
2022-12-24T04:54:07.642Z,8.70
2022-12-24T04:55:07.681Z,12.20
2022-12-24T04:56:07.636Z,8.70
2022-12-24T04:57:07.612Z,10.30
2022-12-24T04:58:07.598Z,13.60
2022-12-24T04:59:07.587Z,11.60
2022-12-24T05:00:07.571Z,11.60
2022-12-24T05:01:07.652Z,12.00
2022-12-24T05:02:07.739Z,11.30
2022-12-24T05:03:07.560Z,11.60
2022-12-24T05:04:07.512Z,9.30
2022-12-24T05:05:07.504Z,11.80
2022-12-24T05:06:07.511Z,11.00
2022-12-24T05:07:07.478Z,12.00
2022-12-24T05:08:07.492Z,11.00
2022-12-24T05:09:07.462Z,11.30
2022-12-24T05:10:07.452Z,10.80
2022-12-24T05:11:07.448Z,9.20
2022-12-24T05:12:07.411Z,10.50
2022-12-24T05:13:07.406Z,10.10
2022-12-24T05:14:07.383Z,14.70
2022-12-24T05:15:07.376Z,12.10
2022-12-24T05:16:07.382Z,10.60
2022-12-24T05:17:07.457Z,12.60
2022-12-24T05:18:07.332Z,11.00
2022-12-24T05:19:07.315Z,11.20
2022-12-24T05:20:07.301Z,11.60
2022-12-24T05:21:07.294Z,12.90
2022-12-24T05:22:07.286Z,12.70
2022-12-24T05:23:07.289Z,11.80
2022-12-24T05:24:07.272Z,12.40
2022-12-24T05:25:07.241Z,9.60
2022-12-24T05:26:07.221Z,15.40
2022-12-24T05:27:07.224Z,10.50
2022-12-24T05:28:07.193Z,12.70
2022-12-24T05:29:07.190Z,12.20
2022-12-24T05:30:07.166Z,11.20
2022-12-24T05:31:07.204Z,8.80
2022-12-24T05:32:07.168Z,9.90
2022-12-24T05:33:07.133Z,12.80
2022-12-24T05:34:07.118Z,10.60
2022-12-24T05:35:07.117Z,12.70
2022-12-24T05:36:07.086Z,12.40
2022-12-24T05:37:07.093Z,10.20
2022-12-24T05:38:07.060Z,13.40
2022-12-24T05:39:11.606Z,10.00
2022-12-24T05:40:07.060Z,12.20
2022-12-24T05:41:07.025Z,9.40
2022-12-24T05:42:07.039Z,10.50
2022-12-24T05:43:07.010Z,9.70
2022-12-24T05:44:07.021Z,11.20
2022-12-24T05:45:06.971Z,10.90
2022-12-24T05:46:07.018Z,12.00
2022-12-24T05:47:06.974Z,10.20
2022-12-24T05:48:06.930Z,11.20
2022-12-24T05:49:06.923Z,9.60
2022-12-24T05:50:06.904Z,12.10
2022-12-24T05:51:06.893Z,11.60
2022-12-24T05:52:06.896Z,14.80
2022-12-24T05:53:06.878Z,9.10
2022-12-24T05:54:06.848Z,13.10
2022-12-24T05:55:06.849Z,11.10
2022-12-24T05:56:06.853Z,12.20
2022-12-24T05:57:06.825Z,11.30
2022-12-24T05:58:06.806Z,12.40
2022-12-24T05:59:06.790Z,10.10
2022-12-24T06:00:06.768Z,11.30
2022-12-24T06:01:06.814Z,14.90
2022-12-24T06:02:06.826Z,13.20
2022-12-24T06:03:06.794Z,11.70
2022-12-24T06:04:06.734Z,11.50
2022-12-24T06:05:06.780Z,14.00
2022-12-24T06:06:06.701Z,13.80
2022-12-24T06:07:06.696Z,11.80
2022-12-24T06:08:06.680Z,13.30
2022-12-24T06:09:06.651Z,12.00
2022-12-24T06:10:06.652Z,11.80
2022-12-24T06:11:06.631Z,11.60
2022-12-24T06:12:06.655Z,9.70
2022-12-24T06:13:06.600Z,11.40
2022-12-24T06:14:06.587Z,11.40
2022-12-24T06:15:06.572Z,10.70
2022-12-24T06:16:06.639Z,13.10
2022-12-24T06:17:06.558Z,13.30
2022-12-24T06:18:06.530Z,11.80
2022-12-24T06:19:06.517Z,8.80
2022-12-24T06:20:06.507Z,10.00
2022-12-24T06:21:06.490Z,8.60
2022-12-24T06:22:06.480Z,10.80
2022-12-24T06:23:06.478Z,11.10
2022-12-24T06:24:06.451Z,11.80
2022-12-24T06:25:06.442Z,12.50
2022-12-24T06:26:06.431Z,10.80
2022-12-24T06:27:06.423Z,14.20
2022-12-24T06:28:06.433Z,11.40
2022-12-24T06:29:06.393Z,15.70
2022-12-24T06:30:06.376Z,14.80
2022-12-24T06:31:06.437Z,13.90
2022-12-24T06:32:06.349Z,11.20
2022-12-24T06:33:06.345Z,12.70
2022-12-24T06:34:06.326Z,11.90
2022-12-24T06:35:06.301Z,16.50
2022-12-24T06:36:10.423Z,11.80
2022-12-24T06:37:06.280Z,11.60
2022-12-24T06:38:06.275Z,12.80
2022-12-24T06:39:06.251Z,13.50
2022-12-24T06:40:06.247Z,13.20
2022-12-24T06:41:06.234Z,13.90
2022-12-24T06:42:06.213Z,13.00
2022-12-24T06:43:06.211Z,11.20
2022-12-24T06:44:06.203Z,13.50
2022-12-24T06:45:08.619Z,11.40
2022-12-24T06:46:06.257Z,11.70
2022-12-24T06:47:06.144Z,14.30
2022-12-24T06:48:06.146Z,14.80
2022-12-24T06:49:06.114Z,14.10
2022-12-24T06:50:06.107Z,16.40
2022-12-24T06:51:06.099Z,13.70
2022-12-24T06:52:06.076Z,12.80
2022-12-24T06:53:06.074Z,13.30
2022-12-24T06:54:06.045Z,14.00
2022-12-24T06:55:06.030Z,16.40
2022-12-24T06:56:06.022Z,11.30
2022-12-24T06:57:06.006Z,15.60
2022-12-24T06:58:06.038Z,16.30
2022-12-24T06:59:05.978Z,13.90
2022-12-24T07:00:05.994Z,14.20
2022-12-24T07:01:05.998Z,14.30
2022-12-24T07:02:06.265Z,13.60
2022-12-24T07:03:05.938Z,14.50
2022-12-24T07:04:05.937Z,15.70
2022-12-24T07:05:05.898Z,14.40
2022-12-24T07:06:05.902Z,18.60
2022-12-24T07:07:05.875Z,14.70
2022-12-24T07:08:05.879Z,14.70
2022-12-24T07:09:05.847Z,17.50
2022-12-24T07:10:05.836Z,14.20
2022-12-24T07:11:05.824Z,13.80
2022-12-24T07:12:05.805Z,18.20
2022-12-24T07:13:05.869Z,15.10
2022-12-24T07:14:05.785Z,14.30
2022-12-24T07:15:05.772Z,13.20
2022-12-24T07:16:05.901Z,13.80
2022-12-24T07:17:05.815Z,16.40
2022-12-24T07:18:05.745Z,15.30
2022-12-24T07:19:05.711Z,16.50
2022-12-24T07:20:05.712Z,16.20
2022-12-24T07:21:05.687Z,18.20
2022-12-24T07:22:09.029Z,13.00
2022-12-24T07:23:05.684Z,18.70
2022-12-24T07:24:05.643Z,15.80
2022-12-24T07:25:05.631Z,15.50
2022-12-24T07:26:05.615Z,16.30
2022-12-24T07:27:05.601Z,15.10
2022-12-24T07:28:05.594Z,17.90
2022-12-24T07:29:05.602Z,16.40
2022-12-24T07:30:05.566Z,18.90
2022-12-24T07:31:05.662Z,15.60
2022-12-24T07:32:05.566Z,15.30
2022-12-24T07:33:05.533Z,15.70
2022-12-24T07:34:05.533Z,15.60
2022-12-24T07:35:05.499Z,12.20
2022-12-24T07:36:05.526Z,14.90
2022-12-24T07:37:05.472Z,18.00
2022-12-24T07:38:05.467Z,16.50
2022-12-24T07:39:05.459Z,16.30
2022-12-24T07:40:05.433Z,14.70
2022-12-24T07:41:05.428Z,17.80
2022-12-24T07:42:05.413Z,15.00
2022-12-24T07:43:05.397Z,17.60
2022-12-24T07:44:05.421Z,16.10
2022-12-24T07:45:05.375Z,14.00
2022-12-24T07:46:05.367Z,17.50
2022-12-24T07:47:05.367Z,19.10
2022-12-24T07:48:05.353Z,13.00
2022-12-24T07:49:05.335Z,15.20
2022-12-24T07:50:05.366Z,18.60
2022-12-24T07:51:05.292Z,16.10
2022-12-24T07:52:05.279Z,20.40
2022-12-24T07:53:05.268Z,18.60
2022-12-24T07:54:05.272Z,13.40
2022-12-24T07:55:05.401Z,12.50
2022-12-24T07:56:12.260Z,17.40
2022-12-24T07:57:06.208Z,13.40
2022-12-24T07:58:05.198Z,15.10
2022-12-24T07:59:05.195Z,14.20
2022-12-24T08:00:05.176Z,15.60
2022-12-24T08:01:05.221Z,16.70
2022-12-24T08:02:05.265Z,16.60
2022-12-24T08:03:05.265Z,15.00
2022-12-24T08:04:05.176Z,16.50
2022-12-24T08:05:05.124Z,16.20
2022-12-24T08:06:05.108Z,17.10
2022-12-24T08:07:05.077Z,15.10
2022-12-24T08:08:05.066Z,13.70
2022-12-24T08:09:05.068Z,13.30
2022-12-24T08:10:05.040Z,15.30
2022-12-24T08:11:05.039Z,13.50
2022-12-24T08:12:05.017Z,16.30
2022-12-24T08:13:05.001Z,14.90
2022-12-24T08:14:05.018Z,14.40
2022-12-24T08:15:04.976Z,16.40
2022-12-24T08:16:05.004Z,14.80
2022-12-24T08:17:04.997Z,14.70
2022-12-24T08:18:04.940Z,16.90
2022-12-24T08:19:04.949Z,15.90
2022-12-24T08:20:04.936Z,16.10
2022-12-24T08:21:04.911Z,16.30
2022-12-24T08:22:04.890Z,16.80
2022-12-24T08:23:04.869Z,18.30
2022-12-24T08:24:04.878Z,16.00
2022-12-24T08:25:04.847Z,14.80
2022-12-24T08:26:04.831Z,18.30
2022-12-24T08:27:04.822Z,19.20
2022-12-24T08:28:04.809Z,18.30
2022-12-24T08:29:04.815Z,17.30
2022-12-24T08:30:04.785Z,17.30
2022-12-24T08:31:04.793Z,19.40
2022-12-24T08:32:04.987Z,14.90
2022-12-24T08:33:04.741Z,19.80
2022-12-24T08:34:04.746Z,20.30
2022-12-24T08:35:04.718Z,16.70
2022-12-24T08:36:04.729Z,19.80
2022-12-24T08:37:04.707Z,19.70
2022-12-24T08:38:04.674Z,16.70
2022-12-24T08:39:04.686Z,17.80
2022-12-24T08:40:04.652Z,13.30
2022-12-24T08:41:04.639Z,19.30
2022-12-24T08:42:04.664Z,14.60
2022-12-24T08:43:04.609Z,18.70
2022-12-24T08:44:04.620Z,16.30
2022-12-24T08:45:04.580Z,14.70
2022-12-24T08:46:04.648Z,19.80
2022-12-24T08:47:04.556Z,18.10
2022-12-24T08:48:04.548Z,14.30
2022-12-24T08:49:04.560Z,18.80
2022-12-24T08:50:04.521Z,20.30
2022-12-24T08:51:04.508Z,15.30
2022-12-24T08:52:04.526Z,18.70
2022-12-24T08:53:04.480Z,19.40
2022-12-24T08:54:04.471Z,17.70
2022-12-24T08:55:04.469Z,21.90
2022-12-24T08:56:04.456Z,17.90
2022-12-24T08:57:04.451Z,15.40
2022-12-24T08:58:04.428Z,19.40
2022-12-24T08:59:04.431Z,16.00
2022-12-24T09:00:04.403Z,14.90
2022-12-24T09:01:04.511Z,16.80
2022-12-24T09:02:04.499Z,18.10
2022-12-24T09:03:04.451Z,18.70
2022-12-24T09:04:04.342Z,16.30
2022-12-24T09:05:04.342Z,14.30
2022-12-24T09:06:04.327Z,18.20
2022-12-24T09:07:04.300Z,19.40
2022-12-24T09:08:04.303Z,18.60
2022-12-24T09:09:04.281Z,16.60
2022-12-24T09:10:04.269Z,16.90
2022-12-24T09:11:04.252Z,16.30
2022-12-24T09:12:04.233Z,16.20
2022-12-24T09:13:04.219Z,22.80
2022-12-24T09:14:04.210Z,19.00
2022-12-24T09:15:04.618Z,14.90
2022-12-24T09:16:04.245Z,16.00
2022-12-24T09:17:04.262Z,19.20
2022-12-24T09:18:04.169Z,20.80
2022-12-24T09:19:04.137Z,20.90
2022-12-24T09:20:04.144Z,21.70
2022-12-24T09:21:04.116Z,19.10
2022-12-24T09:22:04.105Z,17.80
2022-12-24T09:23:04.091Z,22.10
2022-12-24T09:24:04.104Z,21.70
2022-12-24T09:25:04.083Z,21.90
2022-12-24T09:26:04.051Z,21.80
2022-12-24T09:27:04.041Z,20.70
2022-12-24T09:28:04.026Z,22.10
2022-12-24T09:29:04.011Z,20.50
2022-12-24T09:30:04.018Z,23.20
2022-12-24T09:31:04.002Z,22.10
2022-12-24T09:32:04.042Z,22.70
2022-12-24T09:33:03.967Z,24.60
2022-12-24T09:34:03.948Z,27.10
2022-12-24T09:35:03.957Z,20.90
2022-12-24T09:36:03.925Z,22.80
2022-12-24T09:37:03.916Z,19.50
2022-12-24T09:38:03.903Z,27.90
2022-12-24T09:39:03.879Z,26.50
2022-12-24T09:40:03.919Z,22.70
2022-12-24T09:41:08.907Z,19.90
2022-12-24T09:42:04.848Z,26.90
2022-12-24T09:43:03.826Z,21.50
2022-12-24T09:44:03.820Z,25.50
2022-12-24T09:45:03.826Z,22.40
2022-12-24T09:46:03.836Z,24.20
2022-12-24T09:47:09.724Z,23.50
2022-12-24T09:48:03.787Z,22.50
2022-12-24T09:49:03.750Z,23.80
2022-12-24T09:50:03.754Z,23.30
2022-12-24T09:51:03.732Z,25.30
2022-12-24T09:52:03.711Z,24.80
2022-12-24T09:53:03.719Z,20.10
2022-12-24T09:54:03.694Z,28.70
2022-12-24T09:55:03.738Z,27.50
2022-12-24T09:56:03.688Z,24.30
2022-12-24T09:57:03.653Z,24.10
2022-12-24T09:58:03.632Z,24.70
2022-12-24T09:59:03.613Z,26.60
2022-12-24T10:00:03.629Z,22.80
2022-12-24T10:01:03.737Z,24.90
2022-12-24T10:02:03.822Z,19.40
2022-12-24T10:03:03.613Z,20.50
2022-12-24T10:04:03.554Z,24.10
2022-12-24T10:05:03.543Z,18.50
2022-12-24T10:06:03.545Z,20.20
2022-12-24T10:07:03.522Z,24.00
2022-12-24T10:08:03.512Z,20.80
2022-12-24T10:09:03.506Z,21.20
2022-12-24T10:10:03.480Z,19.60
2022-12-24T10:11:03.478Z,21.90
2022-12-24T10:12:03.484Z,17.00
2022-12-24T10:13:03.446Z,26.50
2022-12-24T10:14:03.424Z,27.70
2022-12-24T10:15:03.413Z,29.30
2022-12-24T10:16:03.418Z,21.70
2022-12-24T10:17:03.452Z,23.20
2022-12-24T10:18:03.374Z,32.20
2022-12-24T10:19:03.362Z,19.70
2022-12-24T10:20:03.344Z,27.20
2022-12-24T10:21:03.352Z,24.00
2022-12-24T10:22:03.320Z,25.90
2022-12-24T10:23:03.343Z,22.30
2022-12-24T10:24:03.295Z,19.30
2022-12-24T10:25:03.291Z,24.30
2022-12-24T10:26:03.282Z,18.90
2022-12-24T10:27:03.253Z,21.90
2022-12-24T10:28:03.265Z,23.00
2022-12-24T10:29:03.232Z,23.70
2022-12-24T10:30:03.221Z,22.30
2022-12-24T10:31:03.424Z,25.70
2022-12-24T10:32:03.188Z,21.90
2022-12-24T10:33:03.174Z,23.80
2022-12-24T10:34:03.166Z,24.90
2022-12-24T10:35:03.153Z,21.10
2022-12-24T10:36:08.191Z,26.10
2022-12-24T10:37:03.188Z,25.90
2022-12-24T10:38:03.128Z,23.90
2022-12-24T10:39:03.094Z,22.30
2022-12-24T10:40:03.105Z,26.80
2022-12-24T10:41:03.082Z,24.10
2022-12-24T10:42:03.067Z,25.40
2022-12-24T10:43:03.059Z,28.20
2022-12-24T10:44:03.092Z,25.80
2022-12-24T10:45:03.035Z,26.30
2022-12-24T10:46:03.040Z,25.10
2022-12-24T10:47:03.004Z,27.20
2022-12-24T10:48:02.985Z,26.50
2022-12-24T10:49:02.975Z,24.90
2022-12-24T10:50:02.955Z,28.90
2022-12-24T10:51:02.957Z,24.60
2022-12-24T10:52:02.932Z,22.50
2022-12-24T10:53:02.915Z,25.40
2022-12-24T10:54:02.919Z,25.20
2022-12-24T10:55:02.904Z,22.00
2022-12-24T10:56:02.900Z,22.70
2022-12-24T10:57:02.917Z,26.30
2022-12-24T10:58:02.858Z,26.90
2022-12-24T10:59:02.839Z,25.80
2022-12-24T11:00:02.851Z,23.00
2022-12-24T11:01:03.105Z,22.20
2022-12-24T11:02:02.940Z,25.70
2022-12-24T11:03:03.063Z,24.70
2022-12-24T11:04:02.797Z,19.70
2022-12-24T11:05:02.757Z,29.30
2022-12-24T11:06:02.810Z,22.20
2022-12-24T11:07:02.738Z,18.60
2022-12-24T11:08:02.790Z,22.20
2022-12-24T11:09:02.716Z,24.50
2022-12-24T11:10:02.730Z,25.20
2022-12-24T11:11:02.709Z,21.60
2022-12-24T11:12:08.671Z,18.90
2022-12-24T11:13:35.626Z,26.30
2022-12-24T11:14:03.647Z,22.90
2022-12-24T11:15:02.662Z,20.80
2022-12-24T11:16:02.758Z,22.60
2022-12-24T11:17:02.607Z,25.20
2022-12-24T11:18:02.594Z,27.70
2022-12-24T11:19:02.586Z,19.70
2022-12-24T11:20:02.577Z,23.10
2022-12-24T11:21:02.556Z,21.50
2022-12-24T11:22:02.560Z,19.40
2022-12-24T11:23:02.531Z,18.20
2022-12-24T11:24:02.516Z,19.30
2022-12-24T11:25:02.508Z,18.70
2022-12-24T11:26:02.491Z,20.10
2022-12-24T11:27:02.500Z,27.30
2022-12-24T11:28:02.465Z,21.70
2022-12-24T11:29:02.446Z,19.70
2022-12-24T11:30:07.983Z,22.00
2022-12-24T11:31:03.488Z,22.20
2022-12-24T11:32:02.442Z,18.60
2022-12-24T11:33:02.416Z,20.60
2022-12-24T11:34:02.384Z,16.40
2022-12-24T11:35:02.374Z,23.40
2022-12-24T11:36:02.406Z,17.70
2022-12-24T11:37:02.368Z,21.80
2022-12-24T11:38:02.330Z,16.80
2022-12-24T11:39:02.322Z,21.70
2022-12-24T11:40:02.322Z,17.80
2022-12-24T11:41:02.291Z,19.30
2022-12-24T11:42:02.296Z,17.90
2022-12-24T11:43:02.268Z,17.90
2022-12-24T11:44:02.262Z,22.80
2022-12-24T11:45:02.266Z,17.80
2022-12-24T11:46:02.289Z,19.60
2022-12-24T11:47:02.231Z,21.30
2022-12-24T11:48:02.227Z,17.80
2022-12-24T11:49:07.636Z,19.70
2022-12-24T11:50:17.537Z,12.40
2022-12-24T11:51:02.169Z,12.60
2022-12-24T11:52:02.168Z,17.10
2022-12-24T11:53:02.149Z,12.70
2022-12-24T11:54:02.150Z,14.70
2022-12-24T11:55:02.114Z,16.80
2022-12-24T11:56:02.104Z,15.10
2022-12-24T11:57:02.105Z,15.30
2022-12-24T11:58:02.087Z,17.90
2022-12-24T11:59:02.069Z,14.20
2022-12-24T12:00:02.063Z,18.00
2022-12-24T12:01:02.047Z,15.50
2022-12-24T12:02:02.142Z,13.90
2022-12-24T12:03:02.109Z,15.40
2022-12-24T12:04:02.116Z,20.60
2022-12-24T12:05:01.994Z,15.90
2022-12-24T12:06:01.975Z,16.90
2022-12-24T12:07:02.296Z,14.50
2022-12-24T12:08:01.943Z,14.70
2022-12-24T12:09:01.931Z,16.20
2022-12-24T12:10:01.917Z,15.50
2022-12-24T12:11:01.910Z,14.50
2022-12-24T12:12:01.908Z,13.30
2022-12-24T12:13:01.885Z,15.40
2022-12-24T12:14:01.868Z,19.20
2022-12-24T12:15:01.862Z,14.70
2022-12-24T12:16:01.906Z,14.80
2022-12-24T12:17:01.847Z,17.00
2022-12-24T12:18:01.817Z,17.40
2022-12-24T12:19:01.821Z,15.90
2022-12-24T12:20:01.805Z,20.20
2022-12-24T12:21:01.793Z,17.70
2022-12-24T12:22:01.787Z,19.20
2022-12-24T12:23:01.768Z,16.80
2022-12-24T12:24:01.755Z,18.80
2022-12-24T12:25:01.726Z,16.20
2022-12-24T12:26:01.725Z,17.80
2022-12-24T12:27:01.730Z,17.10
2022-12-24T12:28:01.680Z,17.10
2022-12-24T12:29:01.683Z,19.00
2022-12-24T12:30:01.666Z,18.30
2022-12-24T12:31:01.691Z,15.80
2022-12-24T12:32:01.750Z,20.40
2022-12-24T12:33:01.838Z,17.70
2022-12-24T12:34:01.609Z,20.40
2022-12-24T12:35:01.590Z,12.20
2022-12-24T12:36:01.615Z,15.90
2022-12-24T12:37:01.584Z,19.00
2022-12-24T12:38:01.620Z,17.40
2022-12-24T12:39:01.546Z,23.40
2022-12-24T12:40:01.527Z,16.40
2022-12-24T12:41:01.569Z,17.20
2022-12-24T12:42:01.502Z,17.70
2022-12-24T12:43:01.507Z,20.50
2022-12-24T12:44:01.479Z,18.80
2022-12-24T12:45:01.477Z,19.20
2022-12-24T12:46:01.459Z,18.20
2022-12-24T12:47:01.541Z,18.10
2022-12-24T12:48:01.437Z,16.00
2022-12-24T12:49:03.029Z,17.20
2022-12-24T12:50:01.406Z,16.80
2022-12-24T12:51:01.387Z,19.80
2022-12-24T12:52:01.396Z,16.70
2022-12-24T12:53:01.379Z,16.30
2022-12-24T12:54:01.346Z,15.40
2022-12-24T12:55:01.344Z,17.20
2022-12-24T12:56:01.329Z,18.90
2022-12-24T12:57:01.309Z,19.40